sensor_id;sensor_type;location;lat;lon;timestamp;P1;durP1;ratioP1;P2;durP2;ratioP2
26530;SDS011;14201;43.188;24.160;2023-07-31T00:01:29;15.27;;;13.77;;
26530;SDS011;14201;43.188;24.160;2023-07-31T00:03:54;14.93;;;13.52;;
26530;SDS011;14201;43.188;24.160;2023-07-31T00:06:20;14.23;;;12.55;;
26530;SDS011;14201;43.188;24.160;2023-07-31T00:08:46;14.23;;;12.77;;
26530;SDS011;14201;43.188;24.160;2023-07-31T00:11:11;13.80;;;12.60;;
26530;SDS011;14201;43.188;24.160;2023-07-31T00:13:37;15.68;;;14.27;;
26530;SDS011;14201;43.188;24.160;2023-07-31T00:16:03;15.30;;;13.43;;
26530;SDS011;14201;43.188;24.160;2023-07-31T00:18:28;15.25;;;13.55;;
26530;SDS011;14201;43.188;24.160;2023-07-31T00:20:54;15.75;;;14.15;;
26530;SDS011;14201;43.188;24.160;2023-07-31T00:23:19;16.30;;;14.65;;
26530;SDS011;14201;43.188;24.160;2023-07-31T00:25:45;17.58;;;15.88;;
26530;SDS011;14201;43.188;24.160;2023-07-31T00:28:11;16.92;;;15.43;;
26530;SDS011;14201;43.188;24.160;2023-07-31T00:30:36;16.42;;;14.75;;
26530;SDS011;14201;43.188;24.160;2023-07-31T00:33:02;17.75;;;16.02;;
26530;SDS011;14201;43.188;24.160;2023-07-31T00:35:27;18.25;;;16.45;;
26530;SDS011;14201;43.188;24.160;2023-07-31T00:37:53;16.73;;;15.13;;
26530;SDS011;14201;43.188;24.160;2023-07-31T00:40:18;17.00;;;15.23;;
26530;SDS011;14201;43.188;24.160;2023-07-31T00:42:44;17.73;;;15.93;;
26530;SDS011;14201;43.188;24.160;2023-07-31T00:45:10;15.55;;;14.02;;
26530;SDS011;14201;43.188;24.160;2023-07-31T00:47:35;13.30;;;12.15;;
26530;SDS011;14201;43.188;24.160;2023-07-31T00:50:01;12.82;;;11.52;;
26530;SDS011;14201;43.188;24.160;2023-07-31T00:52:26;13.10;;;10.70;;
26530;SDS011;14201;43.188;24.160;2023-07-31T00:54:52;10.75;;;9.65;;
26530;SDS011;14201;43.188;24.160;2023-07-31T00:57:18;10.25;;;9.32;;
26530;SDS011;14201;43.188;24.160;2023-07-31T00:59:44;11.18;;;10.13;;
26530;SDS011;14201;43.188;24.160;2023-07-31T01:02:09;10.18;;;9.32;;
26530;SDS011;14201;43.188;24.160;2023-07-31T01:04:35;12.25;;;10.52;;
26530;SDS011;14201;43.188;24.160;2023-07-31T01:12:40;13.40;;;12.20;;
26530;SDS011;14201;43.188;24.160;2023-07-31T01:15:07;12.32;;;11.13;;
26530;SDS011;14201;43.188;24.160;2023-07-31T01:17:36;13.15;;;11.30;;
26530;SDS011;14201;43.188;24.160;2023-07-31T01:20:03;11.85;;;10.75;;
26530;SDS011;14201;43.188;24.160;2023-07-31T01:27:45;11.98;;;9.93;;
26530;SDS011;14201;43.188;24.160;2023-07-31T01:30:21;11.95;;;10.75;;
26530;SDS011;14201;43.188;24.160;2023-07-31T01:35:17;13.25;;;10.82;;
26530;SDS011;14201;43.188;24.160;2023-07-31T01:37:42;13.27;;;11.98;;
26530;SDS011;14201;43.188;24.160;2023-07-31T01:40:08;14.82;;;12.40;;
26530;SDS011;14201;43.188;24.160;2023-07-31T01:42:34;13.90;;;12.35;;
26530;SDS011;14201;43.188;24.160;2023-07-31T01:45:00;15.20;;;13.20;;
26530;SDS011;14201;43.188;24.160;2023-07-31T01:47:25;14.75;;;13.27;;
26530;SDS011;14201;43.188;24.160;2023-07-31T01:49:51;14.07;;;12.52;;
26530;SDS011;14201;43.188;24.160;2023-07-31T01:52:16;13.52;;;12.13;;
26530;SDS011;14201;43.188;24.160;2023-07-31T01:54:42;14.75;;;11.25;;
26530;SDS011;14201;43.188;24.160;2023-07-31T01:57:07;12.05;;;10.88;;
26530;SDS011;14201;43.188;24.160;2023-07-31T01:59:33;11.88;;;10.68;;
26530;SDS011;14201;43.188;24.160;2023-07-31T02:01:58;11.60;;;10.50;;
26530;SDS011;14201;43.188;24.160;2023-07-31T02:04:24;11.60;;;10.50;;
26530;SDS011;14201;43.188;24.160;2023-07-31T02:06:49;11.00;;;9.77;;
26530;SDS011;14201;43.188;24.160;2023-07-31T02:09:15;12.35;;;10.10;;
26530;SDS011;14201;43.188;24.160;2023-07-31T02:11:41;11.73;;;9.82;;
26530;SDS011;14201;43.188;24.160;2023-07-31T02:14:06;11.77;;;10.07;;
26530;SDS011;14201;43.188;24.160;2023-07-31T02:16:32;13.20;;;10.10;;
26530;SDS011;14201;43.188;24.160;2023-07-31T02:18:58;11.70;;;10.50;;
26530;SDS011;14201;43.188;24.160;2023-07-31T02:21:23;11.32;;;9.70;;
26530;SDS011;14201;43.188;24.160;2023-07-31T02:23:49;10.77;;;9.60;;
26530;SDS011;14201;43.188;24.160;2023-07-31T02:26:14;11.05;;;9.77;;
26530;SDS011;14201;43.188;24.160;2023-07-31T02:28:40;10.90;;;9.80;;
26530;SDS011;14201;43.188;24.160;2023-07-31T02:31:08;10.68;;;9.68;;
26530;SDS011;14201;43.188;24.160;2023-07-31T02:33:33;11.43;;;9.55;;
26530;SDS011;14201;43.188;24.160;2023-07-31T02:35:59;11.13;;;10.10;;
26530;SDS011;14201;43.188;24.160;2023-07-31T02:38:24;10.43;;;9.43;;
26530;SDS011;14201;43.188;24.160;2023-07-31T02:40:50;11.13;;;10.00;;
26530;SDS011;14201;43.188;24.160;2023-07-31T02:43:16;10.32;;;9.25;;
26530;SDS011;14201;43.188;24.160;2023-07-31T02:45:41;10.25;;;9.25;;
26530;SDS011;14201;43.188;24.160;2023-07-31T02:48:07;11.65;;;10.23;;
26530;SDS011;14201;43.188;24.160;2023-07-31T02:50:33;11.63;;;9.82;;
26530;SDS011;14201;43.188;24.160;2023-07-31T02:52:58;14.07;;;10.70;;
26530;SDS011;14201;43.188;24.160;2023-07-31T02:55:24;12.48;;;10.88;;
26530;SDS011;14201;43.188;24.160;2023-07-31T02:57:49;12.77;;;10.98;;
26530;SDS011;14201;43.188;24.160;2023-07-31T03:00:17;12.70;;;10.38;;
26530;SDS011;14201;43.188;24.160;2023-07-31T03:02:42;10.52;;;9.48;;
26530;SDS011;14201;43.188;24.160;2023-07-31T03:05:08;12.05;;;10.07;;
26530;SDS011;14201;43.188;24.160;2023-07-31T03:07:34;10.60;;;9.50;;
26530;SDS011;14201;43.188;24.160;2023-07-31T03:09:59;11.10;;;10.00;;
26530;SDS011;14201;43.188;24.160;2023-07-31T03:12:25;13.30;;;10.02;;
26530;SDS011;14201;43.188;24.160;2023-07-31T03:14:50;14.07;;;10.35;;
26530;SDS011;14201;43.188;24.160;2023-07-31T03:17:16;10.85;;;9.75;;
26530;SDS011;14201;43.188;24.160;2023-07-31T03:19:41;12.68;;;10.18;;
26530;SDS011;14201;43.188;24.160;2023-07-31T03:22:07;12.75;;;10.05;;
26530;SDS011;14201;43.188;24.160;2023-07-31T03:24:33;13.20;;;9.70;;
26530;SDS011;14201;43.188;24.160;2023-07-31T03:26:58;12.32;;;10.70;;
26530;SDS011;14201;43.188;24.160;2023-07-31T03:29:24;15.93;;;10.75;;
26530;SDS011;14201;43.188;24.160;2023-07-31T03:31:49;12.02;;;10.82;;
26530;SDS011;14201;43.188;24.160;2023-07-31T03:34:15;14.50;;;10.55;;
26530;SDS011;14201;43.188;24.160;2023-07-31T03:36:42;12.82;;;10.52;;
26530;SDS011;14201;43.188;24.160;2023-07-31T03:39:08;14.30;;;10.70;;
26530;SDS011;14201;43.188;24.160;2023-07-31T03:41:33;11.63;;;10.07;;
26530;SDS011;14201;43.188;24.160;2023-07-31T03:43:59;11.68;;;9.82;;
26530;SDS011;14201;43.188;24.160;2023-07-31T03:46:24;10.90;;;9.88;;
26530;SDS011;14201;43.188;24.160;2023-07-31T03:48:50;12.82;;;10.00;;
26530;SDS011;14201;43.188;24.160;2023-07-31T03:51:16;10.48;;;9.45;;
26530;SDS011;14201;43.188;24.160;2023-07-31T03:53:43;11.38;;;10.25;;
26530;SDS011;14201;43.188;24.160;2023-07-31T03:56:09;12.55;;;9.82;;
26530;SDS011;14201;43.188;24.160;2023-07-31T03:58:35;14.88;;;10.75;;
26530;SDS011;14201;43.188;24.160;2023-07-31T04:01:02;14.90;;;9.82;;
26530;SDS011;14201;43.188;24.160;2023-07-31T04:03:28;12.48;;;11.18;;
26530;SDS011;14201;43.188;24.160;2023-07-31T04:05:54;15.13;;;10.40;;
26530;SDS011;14201;43.188;24.160;2023-07-31T04:08:21;12.35;;;11.15;;
26530;SDS011;14201;43.188;24.160;2023-07-31T04:10:47;11.98;;;10.77;;
26530;SDS011;14201;43.188;24.160;2023-07-31T04:13:13;11.85;;;10.60;;
26530;SDS011;14201;43.188;24.160;2023-07-31T04:15:39;12.48;;;10.75;;
26530;SDS011;14201;43.188;24.160;2023-07-31T04:18:05;12.20;;;10.88;;
26530;SDS011;14201;43.188;24.160;2023-07-31T04:20:31;11.30;;;10.20;;
26530;SDS011;14201;43.188;24.160;2023-07-31T04:22:56;11.57;;;10.32;;
26530;SDS011;14201;43.188;24.160;2023-07-31T04:25:22;12.75;;;9.93;;
26530;SDS011;14201;43.188;24.160;2023-07-31T04:27:47;13.43;;;10.15;;
26530;SDS011;14201;43.188;24.160;2023-07-31T04:30:13;12.63;;;10.60;;
26530;SDS011;14201;43.188;24.160;2023-07-31T04:32:39;13.93;;;9.95;;
26530;SDS011;14201;43.188;24.160;2023-07-31T04:35:04;10.13;;;9.13;;
26530;SDS011;14201;43.188;24.160;2023-07-31T04:37:30;14.75;;;9.30;;
26530;SDS011;14201;43.188;24.160;2023-07-31T04:39:56;13.75;;;9.85;;
26530;SDS011;14201;43.188;24.160;2023-07-31T04:42:22;11.40;;;9.23;;
26530;SDS011;14201;43.188;24.160;2023-07-31T04:44:48;9.95;;;8.75;;
26530;SDS011;14201;43.188;24.160;2023-07-31T04:47:13;11.15;;;9.25;;
26530;SDS011;14201;43.188;24.160;2023-07-31T04:49:39;10.27;;;9.02;;
26530;SDS011;14201;43.188;24.160;2023-07-31T04:52:05;10.18;;;8.73;;
26530;SDS011;14201;43.188;24.160;2023-07-31T04:54:30;11.57;;;8.90;;
26530;SDS011;14201;43.188;24.160;2023-07-31T04:56:56;10.65;;;8.60;;
26530;SDS011;14201;43.188;24.160;2023-07-31T04:59:22;11.35;;;8.00;;
26530;SDS011;14201;43.188;24.160;2023-07-31T05:01:47;8.55;;;7.22;;
26530;SDS011;14201;43.188;24.160;2023-07-31T05:04:13;13.10;;;6.97;;
26530;SDS011;14201;43.188;24.160;2023-07-31T05:06:39;10.88;;;7.20;;
26530;SDS011;14201;43.188;24.160;2023-07-31T05:09:05;10.20;;;7.78;;
26530;SDS011;14201;43.188;24.160;2023-07-31T05:11:31;8.07;;;7.10;;
26530;SDS011;14201;43.188;24.160;2023-07-31T05:13:56;8.77;;;7.30;;
26530;SDS011;14201;43.188;24.160;2023-07-31T05:16:22;9.43;;;7.22;;
26530;SDS011;14201;43.188;24.160;2023-07-31T05:18:48;12.75;;;7.60;;
26530;SDS011;14201;43.188;24.160;2023-07-31T05:21:13;11.60;;;7.40;;
26530;SDS011;14201;43.188;24.160;2023-07-31T05:23:39;10.65;;;7.97;;
26530;SDS011;14201;43.188;24.160;2023-07-31T05:26:05;9.85;;;7.50;;
26530;SDS011;14201;43.188;24.160;2023-07-31T05:28:31;12.55;;;6.88;;
26530;SDS011;14201;43.188;24.160;2023-07-31T05:31:00;7.40;;;6.45;;
26530;SDS011;14201;43.188;24.160;2023-07-31T05:33:26;11.00;;;7.25;;
26530;SDS011;14201;43.188;24.160;2023-07-31T05:35:52;8.02;;;6.80;;
26530;SDS011;14201;43.188;24.160;2023-07-31T05:38:18;9.45;;;6.97;;
26530;SDS011;14201;43.188;24.160;2023-07-31T05:40:43;9.85;;;6.68;;
26530;SDS011;14201;43.188;24.160;2023-07-31T05:43:09;7.20;;;6.03;;
26530;SDS011;14201;43.188;24.160;2023-07-31T05:45:35;8.85;;;6.18;;
26530;SDS011;14201;43.188;24.160;2023-07-31T05:48:01;7.00;;;5.63;;
26530;SDS011;14201;43.188;24.160;2023-07-31T05:50:27;7.72;;;5.38;;
26530;SDS011;14201;43.188;24.160;2023-07-31T05:52:53;5.63;;;5.13;;
26530;SDS011;14201;43.188;24.160;2023-07-31T05:55:19;7.88;;;4.72;;
26530;SDS011;14201;43.188;24.160;2023-07-31T05:57:44;6.35;;;4.68;;
26530;SDS011;14201;43.188;24.160;2023-07-31T06:00:11;7.65;;;4.45;;
26530;SDS011;14201;43.188;24.160;2023-07-31T06:02:37;7.10;;;4.40;;
26530;SDS011;14201;43.188;24.160;2023-07-31T06:05:04;7.85;;;4.95;;
26530;SDS011;14201;43.188;24.160;2023-07-31T06:07:31;5.40;;;3.70;;
26530;SDS011;14201;43.188;24.160;2023-07-31T06:09:57;5.57;;;4.53;;
26530;SDS011;14201;43.188;24.160;2023-07-31T06:12:28;7.63;;;3.88;;
26530;SDS011;14201;43.188;24.160;2023-07-31T06:14:54;5.53;;;4.13;;
26530;SDS011;14201;43.188;24.160;2023-07-31T06:17:20;6.35;;;3.53;;
26530;SDS011;14201;43.188;24.160;2023-07-31T06:19:46;5.20;;;3.83;;
26530;SDS011;14201;43.188;24.160;2023-07-31T06:22:15;5.53;;;4.00;;
26530;SDS011;14201;43.188;24.160;2023-07-31T06:24:40;4.45;;;3.72;;
26530;SDS011;14201;43.188;24.160;2023-07-31T06:27:06;7.03;;;3.90;;
26530;SDS011;14201;43.188;24.160;2023-07-31T06:29:32;3.75;;;3.35;;
26530;SDS011;14201;43.188;24.160;2023-07-31T06:31:57;4.68;;;3.55;;
26530;SDS011;14201;43.188;24.160;2023-07-31T06:34:24;9.98;;;3.20;;
26530;SDS011;14201;43.188;24.160;2023-07-31T06:36:49;5.28;;;3.22;;
26530;SDS011;14201;43.188;24.160;2023-07-31T06:39:15;4.68;;;3.35;;
26530;SDS011;14201;43.188;24.160;2023-07-31T06:41:41;3.88;;;3.30;;
26530;SDS011;14201;43.188;24.160;2023-07-31T06:44:08;4.85;;;3.58;;
26530;SDS011;14201;43.188;24.160;2023-07-31T06:46:33;4.40;;;3.47;;
26530;SDS011;14201;43.188;24.160;2023-07-31T06:48:59;5.72;;;3.17;;
26530;SDS011;14201;43.188;24.160;2023-07-31T06:51:25;3.47;;;2.80;;
26530;SDS011;14201;43.188;24.160;2023-07-31T06:53:50;3.08;;;2.55;;
26530;SDS011;14201;43.188;24.160;2023-07-31T06:56:16;3.10;;;2.60;;
26530;SDS011;14201;43.188;24.160;2023-07-31T06:58:41;6.03;;;3.00;;
26530;SDS011;14201;43.188;24.160;2023-07-31T07:01:07;2.90;;;2.10;;
26530;SDS011;14201;43.188;24.160;2023-07-31T07:03:32;3.40;;;2.00;;
26530;SDS011;14201;43.188;24.160;2023-07-31T07:05:58;9.82;;;1.85;;
26530;SDS011;14201;43.188;24.160;2023-07-31T07:08:24;2.47;;;1.83;;
26530;SDS011;14201;43.188;24.160;2023-07-31T07:10:50;8.68;;;2.10;;
26530;SDS011;14201;43.188;24.160;2023-07-31T07:13:16;3.03;;;2.33;;
26530;SDS011;14201;43.188;24.160;2023-07-31T07:15:49;3.08;;;2.38;;
26530;SDS011;14201;43.188;24.160;2023-07-31T07:18:15;2.80;;;1.80;;
26530;SDS011;14201;43.188;24.160;2023-07-31T07:20:46;4.22;;;1.90;;
26530;SDS011;14201;43.188;24.160;2023-07-31T07:23:13;2.58;;;2.15;;
26530;SDS011;14201;43.188;24.160;2023-07-31T07:25:38;3.45;;;1.73;;
26530;SDS011;14201;43.188;24.160;2023-07-31T07:28:04;4.53;;;2.00;;
26530;SDS011;14201;43.188;24.160;2023-07-31T07:30:29;2.72;;;2.03;;
26530;SDS011;14201;43.188;24.160;2023-07-31T07:32:55;3.25;;;2.17;;
26530;SDS011;14201;43.188;24.160;2023-07-31T07:35:20;2.80;;;2.20;;
26530;SDS011;14201;43.188;24.160;2023-07-31T07:37:48;5.45;;;1.90;;
26530;SDS011;14201;43.188;24.160;2023-07-31T07:40:16;2.20;;;1.75;;
26530;SDS011;14201;43.188;24.160;2023-07-31T07:42:41;4.30;;;2.10;;
26530;SDS011;14201;43.188;24.160;2023-07-31T07:45:07;2.95;;;2.22;;
26530;SDS011;14201;43.188;24.160;2023-07-31T07:47:33;2.45;;;2.15;;
26530;SDS011;14201;43.188;24.160;2023-07-31T07:49:59;3.05;;;2.00;;
26530;SDS011;14201;43.188;24.160;2023-07-31T07:52:25;4.03;;;2.10;;
26530;SDS011;14201;43.188;24.160;2023-07-31T07:54:50;2.90;;;2.05;;
26530;SDS011;14201;43.188;24.160;2023-07-31T07:57:16;3.33;;;2.20;;
26530;SDS011;14201;43.188;24.160;2023-07-31T07:59:42;2.08;;;1.80;;
26530;SDS011;14201;43.188;24.160;2023-07-31T08:02:07;3.00;;;2.30;;
26530;SDS011;14201;43.188;24.160;2023-07-31T08:04:33;8.27;;;2.05;;
26530;SDS011;14201;43.188;24.160;2023-07-31T08:06:59;4.60;;;2.47;;
26530;SDS011;14201;43.188;24.160;2023-07-31T08:09:24;5.45;;;2.10;;
26530;SDS011;14201;43.188;24.160;2023-07-31T08:11:50;3.63;;;2.10;;
26530;SDS011;14201;43.188;24.160;2023-07-31T08:14:15;2.78;;;2.20;;
26530;SDS011;14201;43.188;24.160;2023-07-31T08:16:41;2.80;;;2.13;;
26530;SDS011;14201;43.188;24.160;2023-07-31T08:19:08;2.60;;;1.77;;
26530;SDS011;14201;43.188;24.160;2023-07-31T08:21:33;6.85;;;2.28;;
26530;SDS011;14201;43.188;24.160;2023-07-31T08:23:59;2.45;;;2.10;;
26530;SDS011;14201;43.188;24.160;2023-07-31T08:26:25;2.85;;;1.90;;
26530;SDS011;14201;43.188;24.160;2023-07-31T08:28:50;5.88;;;2.10;;
26530;SDS011;14201;43.188;24.160;2023-07-31T08:31:16;3.25;;;1.85;;
26530;SDS011;14201;43.188;24.160;2023-07-31T08:33:41;2.50;;;2.10;;
26530;SDS011;14201;43.188;24.160;2023-07-31T08:36:07;3.88;;;2.50;;
26530;SDS011;14201;43.188;24.160;2023-07-31T08:38:33;2.85;;;1.92;;
26530;SDS011;14201;43.188;24.160;2023-07-31T08:40:58;2.45;;;2.00;;
26530;SDS011;14201;43.188;24.160;2023-07-31T08:43:27;2.70;;;2.28;;
26530;SDS011;14201;43.188;24.160;2023-07-31T08:45:53;3.88;;;2.53;;
26530;SDS011;14201;43.188;24.160;2023-07-31T08:48:19;4.85;;;2.20;;
26530;SDS011;14201;43.188;24.160;2023-07-31T08:50:46;3.40;;;2.22;;
26530;SDS011;14201;43.188;24.160;2023-07-31T08:53:12;3.53;;;2.00;;
26530;SDS011;14201;43.188;24.160;2023-07-31T08:55:38;2.92;;;2.00;;
26530;SDS011;14201;43.188;24.160;2023-07-31T08:58:04;5.15;;;2.30;;
26530;SDS011;14201;43.188;24.160;2023-07-31T09:00:31;3.85;;;2.95;;
26530;SDS011;14201;43.188;24.160;2023-07-31T09:02:59;3.58;;;2.85;;
26530;SDS011;14201;43.188;24.160;2023-07-31T09:05:30;6.35;;;2.30;;
26530;SDS011;14201;43.188;24.160;2023-07-31T09:07:56;2.83;;;2.50;;
26530;SDS011;14201;43.188;24.160;2023-07-31T09:10:23;4.47;;;2.70;;
26530;SDS011;14201;43.188;24.160;2023-07-31T09:12:50;3.67;;;2.85;;
26530;SDS011;14201;43.188;24.160;2023-07-31T09:15:17;3.05;;;2.70;;
26530;SDS011;14201;43.188;24.160;2023-07-31T09:17:43;3.30;;;2.97;;
26530;SDS011;14201;43.188;24.160;2023-07-31T09:22:42;3.67;;;3.10;;
26530;SDS011;14201;43.188;24.160;2023-07-31T09:30:16;3.78;;;3.13;;
26530;SDS011;14201;43.188;24.160;2023-07-31T09:32:43;3.53;;;3.00;;
26530;SDS011;14201;43.188;24.160;2023-07-31T09:35:27;3.40;;;2.92;;
26530;SDS011;14201;43.188;24.160;2023-07-31T09:38:03;5.43;;;3.17;;
26530;SDS011;14201;43.188;24.160;2023-07-31T09:40:31;3.90;;;3.50;;
26530;SDS011;14201;43.188;24.160;2023-07-31T09:43:01;3.55;;;3.25;;
26530;SDS011;14201;43.188;24.160;2023-07-31T09:45:29;6.13;;;3.70;;
26530;SDS011;14201;43.188;24.160;2023-07-31T09:47:56;5.15;;;4.10;;
26530;SDS011;14201;43.188;24.160;2023-07-31T09:50:23;4.68;;;4.20;;
26530;SDS011;14201;43.188;24.160;2023-07-31T09:52:50;4.20;;;3.72;;
26530;SDS011;14201;43.188;24.160;2023-07-31T09:55:16;4.97;;;4.28;;
26530;SDS011;14201;43.188;24.160;2023-07-31T09:57:44;8.73;;;4.32;;
26530;SDS011;14201;43.188;24.160;2023-07-31T10:00:12;4.20;;;3.80;;
26530;SDS011;14201;43.188;24.160;2023-07-31T10:02:38;4.20;;;3.67;;
26530;SDS011;14201;43.188;24.160;2023-07-31T10:05:05;5.47;;;3.70;;
26530;SDS011;14201;43.188;24.160;2023-07-31T10:07:33;4.13;;;3.53;;
26530;SDS011;14201;43.188;24.160;2023-07-31T10:10:03;9.57;;;4.00;;
26530;SDS011;14201;43.188;24.160;2023-07-31T10:12:31;4.85;;;3.50;;
26530;SDS011;14201;43.188;24.160;2023-07-31T10:14:59;4.63;;;3.57;;
26530;SDS011;14201;43.188;24.160;2023-07-31T10:17:26;4.00;;;3.60;;
26530;SDS011;14201;43.188;24.160;2023-07-31T10:19:52;4.50;;;3.83;;
26530;SDS011;14201;43.188;24.160;2023-07-31T10:22:21;5.25;;;3.95;;
26530;SDS011;14201;43.188;24.160;2023-07-31T10:24:47;4.95;;;4.07;;
26530;SDS011;14201;43.188;24.160;2023-07-31T10:27:15;5.40;;;4.32;;
26530;SDS011;14201;43.188;24.160;2023-07-31T10:29:41;4.63;;;4.15;;
26530;SDS011;14201;43.188;24.160;2023-07-31T10:32:09;4.70;;;4.25;;
26530;SDS011;14201;43.188;24.160;2023-07-31T10:34:37;5.07;;;4.28;;
26530;SDS011;14201;43.188;24.160;2023-07-31T10:42:34;10.27;;;5.17;;
26530;SDS011;14201;43.188;24.160;2023-07-31T10:45:05;6.43;;;4.72;;
26530;SDS011;14201;43.188;24.160;2023-07-31T10:47:38;7.43;;;4.68;;
26530;SDS011;14201;43.188;24.160;2023-07-31T10:50:17;5.55;;;4.93;;
26530;SDS011;14201;43.188;24.160;2023-07-31T10:52:51;6.18;;;4.97;;
26530;SDS011;14201;43.188;24.160;2023-07-31T10:55:28;7.18;;;5.35;;
26530;SDS011;14201;43.188;24.160;2023-07-31T10:57:55;7.93;;;4.70;;
26530;SDS011;14201;43.188;24.160;2023-07-31T11:00:29;6.63;;;4.70;;
26530;SDS011;14201;43.188;24.160;2023-07-31T11:05:51;5.68;;;4.55;;
26530;SDS011;14201;43.188;24.160;2023-07-31T11:08:28;8.95;;;4.72;;
26530;SDS011;14201;43.188;24.160;2023-07-31T11:13:30;11.00;;;4.93;;
26530;SDS011;14201;43.188;24.160;2023-07-31T11:15:58;5.97;;;4.53;;
26530;SDS011;14201;43.188;24.160;2023-07-31T11:18:24;5.75;;;4.93;;
26530;SDS011;14201;43.188;24.160;2023-07-31T11:20:52;6.63;;;5.10;;
26530;SDS011;14201;43.188;24.160;2023-07-31T11:23:18;8.27;;;5.93;;
26530;SDS011;14201;43.188;24.160;2023-07-31T11:25:45;6.80;;;5.63;;
26530;SDS011;14201;43.188;24.160;2023-07-31T11:28:12;9.40;;;6.28;;
26530;SDS011;14201;43.188;24.160;2023-07-31T11:30:39;8.00;;;5.80;;
26530;SDS011;14201;43.188;24.160;2023-07-31T11:33:06;7.82;;;5.57;;
26530;SDS011;14201;43.188;24.160;2023-07-31T11:35:34;7.68;;;5.40;;
26530;SDS011;14201;43.188;24.160;2023-07-31T11:38:27;8.25;;;5.55;;
26530;SDS011;14201;43.188;24.160;2023-07-31T11:40:55;10.02;;;5.05;;
26530;SDS011;14201;43.188;24.160;2023-07-31T11:43:22;7.00;;;5.10;;
26530;SDS011;14201;43.188;24.160;2023-07-31T11:45:50;9.07;;;4.47;;
26530;SDS011;14201;43.188;24.160;2023-07-31T11:48:20;5.50;;;4.40;;
26530;SDS011;14201;43.188;24.160;2023-07-31T11:50:52;4.70;;;4.20;;
26530;SDS011;14201;43.188;24.160;2023-07-31T11:53:28;5.15;;;4.32;;
26530;SDS011;14201;43.188;24.160;2023-07-31T11:55:59;5.00;;;4.40;;
26530;SDS011;14201;43.188;24.160;2023-07-31T11:58:26;7.38;;;4.63;;
26530;SDS011;14201;43.188;24.160;2023-07-31T12:00:53;6.57;;;4.20;;
26530;SDS011;14201;43.188;24.160;2023-07-31T12:03:19;5.35;;;4.35;;
26530;SDS011;14201;43.188;24.160;2023-07-31T12:05:47;8.85;;;4.60;;
26530;SDS011;14201;43.188;24.160;2023-07-31T12:08:13;5.68;;;4.60;;
26530;SDS011;14201;43.188;24.160;2023-07-31T12:10:40;4.93;;;4.00;;
26530;SDS011;14201;43.188;24.160;2023-07-31T12:13:10;6.88;;;4.38;;
26530;SDS011;14201;43.188;24.160;2023-07-31T12:15:45;4.32;;;3.80;;
26530;SDS011;14201;43.188;24.160;2023-07-31T12:18:15;5.00;;;3.25;;
26530;SDS011;14201;43.188;24.160;2023-07-31T12:20:45;5.03;;;3.60;;
26530;SDS011;14201;43.188;24.160;2023-07-31T12:23:15;3.90;;;3.22;;
26530;SDS011;14201;43.188;24.160;2023-07-31T12:25:43;4.45;;;3.20;;
26530;SDS011;14201;43.188;24.160;2023-07-31T12:28:09;4.25;;;3.50;;
26530;SDS011;14201;43.188;24.160;2023-07-31T12:30:38;4.33;;;3.17;;
26530;SDS011;14201;43.188;24.160;2023-07-31T12:33:06;14.05;;;11.52;;
26530;SDS011;14201;43.188;24.160;2023-07-31T12:35:37;6.68;;;4.43;;
26530;SDS011;14201;43.188;24.160;2023-07-31T12:38:06;5.30;;;4.57;;
26530;SDS011;14201;43.188;24.160;2023-07-31T12:40:32;3.85;;;3.42;;
26530;SDS011;14201;43.188;24.160;2023-07-31T12:42:58;5.20;;;3.80;;
26530;SDS011;14201;43.188;24.160;2023-07-31T12:45:26;6.18;;;4.15;;
26530;SDS011;14201;43.188;24.160;2023-07-31T12:47:52;4.68;;;3.45;;
26530;SDS011;14201;43.188;24.160;2023-07-31T12:50:18;6.43;;;3.28;;
26530;SDS011;14201;43.188;24.160;2023-07-31T12:52:43;3.95;;;2.35;;
26530;SDS011;14201;43.188;24.160;2023-07-31T12:55:09;3.17;;;2.22;;
26530;SDS011;14201;43.188;24.160;2023-07-31T12:57:36;3.92;;;2.30;;
26530;SDS011;14201;43.188;24.160;2023-07-31T13:00:02;6.68;;;2.33;;
26530;SDS011;14201;43.188;24.160;2023-07-31T13:02:28;3.40;;;2.47;;
26530;SDS011;14201;43.188;24.160;2023-07-31T13:04:54;4.70;;;2.33;;
26530;SDS011;14201;43.188;24.160;2023-07-31T13:07:21;3.08;;;2.28;;
26530;SDS011;14201;43.188;24.160;2023-07-31T13:09:48;3.83;;;2.60;;
26530;SDS011;14201;43.188;24.160;2023-07-31T13:12:13;3.28;;;2.55;;
26530;SDS011;14201;43.188;24.160;2023-07-31T13:14:39;2.63;;;2.28;;
26530;SDS011;14201;43.188;24.160;2023-07-31T13:17:05;4.35;;;2.42;;
26530;SDS011;14201;43.188;24.160;2023-07-31T13:19:31;2.83;;;2.03;;
26530;SDS011;14201;43.188;24.160;2023-07-31T13:21:56;3.80;;;2.35;;
26530;SDS011;14201;43.188;24.160;2023-07-31T13:24:22;2.72;;;2.30;;
26530;SDS011;14201;43.188;24.160;2023-07-31T13:26:48;4.10;;;2.28;;
26530;SDS011;14201;43.188;24.160;2023-07-31T13:29:13;3.65;;;2.22;;
26530;SDS011;14201;43.188;24.160;2023-07-31T13:31:39;3.28;;;2.50;;
26530;SDS011;14201;43.188;24.160;2023-07-31T13:34:04;3.75;;;2.70;;
26530;SDS011;14201;43.188;24.160;2023-07-31T13:36:30;5.47;;;3.10;;
26530;SDS011;14201;43.188;24.160;2023-07-31T13:38:56;3.00;;;2.67;;
26530;SDS011;14201;43.188;24.160;2023-07-31T13:41:21;2.90;;;2.60;;
26530;SDS011;14201;43.188;24.160;2023-07-31T13:43:47;4.13;;;2.20;;
26530;SDS011;14201;43.188;24.160;2023-07-31T13:46:12;2.50;;;2.30;;
26530;SDS011;14201;43.188;24.160;2023-07-31T13:48:38;5.28;;;2.25;;
26530;SDS011;14201;43.188;24.160;2023-07-31T13:51:04;2.40;;;2.20;;
26530;SDS011;14201;43.188;24.160;2023-07-31T13:53:30;4.40;;;2.40;;
26530;SDS011;14201;43.188;24.160;2023-07-31T13:55:56;3.83;;;1.95;;
26530;SDS011;14201;43.188;24.160;2023-07-31T13:58:21;3.80;;;2.40;;
26530;SDS011;14201;43.188;24.160;2023-07-31T14:00:47;4.13;;;2.38;;
26530;SDS011;14201;43.188;24.160;2023-07-31T14:03:13;2.40;;;2.20;;
26530;SDS011;14201;43.188;24.160;2023-07-31T14:05:38;4.43;;;2.47;;
26530;SDS011;14201;43.188;24.160;2023-07-31T14:08:04;4.05;;;2.50;;
26530;SDS011;14201;43.188;24.160;2023-07-31T14:10:29;3.83;;;2.60;;
26530;SDS011;14201;43.188;24.160;2023-07-31T14:12:55;2.53;;;2.20;;
26530;SDS011;14201;43.188;24.160;2023-07-31T14:15:21;3.60;;;1.92;;
26530;SDS011;14201;43.188;24.160;2023-07-31T14:17:46;2.22;;;2.00;;
26530;SDS011;14201;43.188;24.160;2023-07-31T14:20:12;2.45;;;2.03;;
26530;SDS011;14201;43.188;24.160;2023-07-31T14:22:37;5.38;;;2.38;;
26530;SDS011;14201;43.188;24.160;2023-07-31T14:25:03;5.72;;;1.95;;
26530;SDS011;14201;43.188;24.160;2023-07-31T14:27:29;27.77;;;2.97;;
26530;SDS011;14201;43.188;24.160;2023-07-31T14:29:55;3.33;;;1.75;;
26530;SDS011;14201;43.188;24.160;2023-07-31T14:32:21;2.58;;;2.22;;
26530;SDS011;14201;43.188;24.160;2023-07-31T14:34:50;2.08;;;1.88;;
26530;SDS011;14201;43.188;24.160;2023-07-31T14:37:16;2.13;;;1.90;;
26530;SDS011;14201;43.188;24.160;2023-07-31T14:39:42;2.42;;;2.00;;
26530;SDS011;14201;43.188;24.160;2023-07-31T14:42:10;2.17;;;1.98;;
26530;SDS011;14201;43.188;24.160;2023-07-31T14:44:36;2.97;;;2.20;;
26530;SDS011;14201;43.188;24.160;2023-07-31T14:47:02;3.22;;;2.28;;
26530;SDS011;14201;43.188;24.160;2023-07-31T14:49:27;2.50;;;2.20;;
26530;SDS011;14201;43.188;24.160;2023-07-31T14:51:53;3.47;;;2.72;;
26530;SDS011;14201;43.188;24.160;2023-07-31T14:54:19;2.40;;;2.20;;